createdAt,value
2022-12-19T00:01:17.306Z,101747.34
2022-12-19T00:03:59.588Z,101736.97
2022-12-19T00:06:43.797Z,101739.81
2022-12-19T00:09:24.787Z,101733.94
2022-12-19T00:12:04.721Z,101737.44
2022-12-19T00:14:48.057Z,101738.19
2022-12-19T00:17:29.025Z,101737.44
2022-12-19T00:20:09.487Z,101744.38
2022-12-19T00:22:51.844Z,101735.56
2022-12-19T00:25:33.234Z,101731.25
2022-12-19T00:28:16.757Z,101724.34
2022-12-19T00:31:02.066Z,101713.75
2022-12-19T00:33:43.335Z,101695.44
2022-12-19T00:36:27.889Z,101692.75
2022-12-19T00:39:10.441Z,101694.28
2022-12-19T00:41:51.292Z,101690.81
2022-12-19T00:44:33.887Z,101689.09
2022-12-19T00:47:16.104Z,101684.72
2022-12-19T00:49:57.066Z,101678.66
2022-12-19T00:52:36.951Z,101674.34
2022-12-19T00:55:31.030Z,101667.41
2022-12-19T00:58:11.544Z,101666.56
2022-12-19T01:00:52.940Z,101658.81
2022-12-19T01:03:32.712Z,101647.44
2022-12-19T01:06:12.541Z,101640.53
2022-12-19T01:08:52.370Z,101632.50
2022-12-19T01:11:54.910Z,101632.63
2022-12-19T01:14:36.009Z,101637.84
2022-12-19T01:17:15.760Z,101636.88
2022-12-19T01:19:55.550Z,101634.19
2022-12-19T01:22:37.363Z,101631.53
2022-12-19T01:25:18.662Z,101628.13
2022-12-19T01:27:59.819Z,101626.53
2022-12-19T01:30:40.104Z,101627.22
2022-12-19T01:33:21.800Z,101620.19
2022-12-19T01:36:07.590Z,101600.31
2022-12-19T01:38:50.621Z,101601.94
2022-12-19T01:41:31.623Z,101597.41
2022-12-19T01:44:11.658Z,101587.75
2022-12-19T01:46:53.642Z,101601.53
2022-12-19T01:49:36.807Z,101609.88
2022-12-19T01:52:22.311Z,101609.72
2022-12-19T01:55:07.646Z,101619.13
2022-12-19T01:57:48.080Z,101606.00
2022-12-19T02:00:27.866Z,101610.13
2022-12-19T02:03:08.605Z,101604.78
2022-12-19T02:05:52.458Z,101598.69
2022-12-19T02:08:45.554Z,101591.75
2022-12-19T02:11:26.857Z,101580.34
2022-12-19T02:14:06.636Z,101567.22
2022-12-19T02:16:49.038Z,101557.63
2022-12-19T02:19:46.853Z,101554.81
2022-12-19T02:22:29.539Z,101537.41
2022-12-19T02:25:14.680Z,101535.72
2022-12-19T02:28:16.667Z,101532.06
2022-12-19T02:31:00.998Z,101533.75
2022-12-19T02:33:46.626Z,101530.16
2022-12-19T02:36:30.386Z,101537.09
2022-12-19T02:39:15.479Z,101547.38
2022-12-19T02:41:57.487Z,101536.78
2022-12-19T02:44:38.616Z,101531.34
2022-12-19T02:47:21.536Z,101522.56
2022-12-19T02:50:02.796Z,101510.22
2022-12-19T02:52:56.030Z,101503.06
2022-12-19T02:55:38.568Z,101490.91
2022-12-19T02:58:29.033Z,101498.66
2022-12-19T03:01:12.656Z,101507.97
2022-12-19T03:03:54.980Z,101492.28
2022-12-19T03:06:39.449Z,101504.31
2022-12-19T03:09:24.155Z,101503.53
2022-12-19T03:12:15.609Z,101503.59
2022-12-19T03:14:57.370Z,101501.75
2022-12-19T03:17:38.843Z,101497.31
2022-12-19T03:20:20.148Z,101495.47
2022-12-19T03:23:00.012Z,101493.56
2022-12-19T03:25:39.823Z,101502.06
2022-12-19T03:28:22.539Z,101496.75
2022-12-19T03:31:02.799Z,101498.59
2022-12-19T03:33:44.072Z,101490.63
2022-12-19T03:36:27.246Z,101483.53
2022-12-19T03:39:08.533Z,101474.00
2022-12-19T03:42:07.301Z,101478.38
2022-12-19T03:44:49.276Z,101479.16
2022-12-19T03:47:31.903Z,101474.69
2022-12-19T03:50:11.664Z,101465.16
2022-12-19T03:52:52.674Z,101464.22
2022-12-19T03:55:33.187Z,101452.84
2022-12-19T03:58:17.869Z,101457.94
2022-12-19T04:01:01.217Z,101457.09
2022-12-19T04:03:41.985Z,101432.53
2022-12-19T04:06:23.873Z,101437.84
2022-12-19T04:09:04.739Z,101449.81
2022-12-19T04:11:44.930Z,101448.97
2022-12-19T04:14:26.508Z,101437.59
2022-12-19T04:17:10.245Z,101436.72
2022-12-19T04:19:54.827Z,101433.28
2022-12-19T04:22:37.269Z,101443.50
2022-12-19T04:25:19.272Z,101435.59
2022-12-19T04:28:00.138Z,101426.75
2022-12-19T04:30:40.866Z,101417.91
2022-12-19T04:33:20.959Z,101402.88
2022-12-19T04:36:02.048Z,101402.00
2022-12-19T04:38:41.820Z,101399.31
2022-12-19T04:41:23.827Z,101395.00
2022-12-19T04:44:04.739Z,101394.16
2022-12-19T04:46:46.116Z,101393.06
2022-12-19T04:49:29.511Z,101393.22
2022-12-19T04:52:12.740Z,101388.69
2022-12-19T04:54:53.436Z,101379.06
2022-12-19T04:57:33.240Z,101374.59
2022-12-19T05:00:15.797Z,101362.28
2022-12-19T05:02:56.139Z,101356.03
2022-12-19T05:05:37.471Z,101338.56
2022-12-19T05:08:19.265Z,101339.16
2022-12-19T05:11:02.458Z,101336.25
2022-12-19T05:13:43.285Z,101332.47
2022-12-19T05:16:23.156Z,101334.16
2022-12-19T05:19:02.966Z,101326.25
2022-12-19T05:21:42.700Z,101330.53
2022-12-19T05:24:24.501Z,101322.69
2022-12-19T05:27:05.761Z,101325.31
2022-12-19T05:29:48.959Z,101320.41
2022-12-19T05:32:33.631Z,101320.56
2022-12-19T05:35:14.616Z,101331.19
2022-12-19T05:37:54.364Z,101319.94
2022-12-19T05:40:34.408Z,101325.22
2022-12-19T05:43:17.600Z,101329.94
2022-12-19T05:45:58.588Z,101319.38
2022-12-19T05:48:39.068Z,101321.94
2022-12-19T05:51:19.884Z,101316.69
2022-12-19T05:54:02.182Z,101309.47
2022-12-19T05:56:42.609Z,101306.63
2022-12-19T05:59:22.432Z,101208.81
2022-12-19T06:02:03.932Z,101226.91
2022-12-19T06:04:45.224Z,101249.69
2022-12-19T06:07:25.182Z,101265.25
2022-12-19T06:10:07.107Z,101276.56
2022-12-19T06:12:47.840Z,101307.91
2022-12-19T06:15:29.665Z,101328.78
2022-12-19T06:18:08.841Z,101344.28
2022-12-19T06:20:57.389Z,101374.94
2022-12-19T06:23:38.434Z,101384.41
2022-12-19T06:26:20.509Z,101404.59
2022-12-19T06:29:01.139Z,101434.09
2022-12-19T06:31:40.951Z,101459.19
2022-12-19T06:34:46.974Z,101491.53
2022-12-19T06:37:21.383Z,101528.09
2022-12-19T06:40:01.172Z,101546.78
2022-12-19T06:42:40.891Z,101560.56
2022-12-19T06:45:22.826Z,101574.94
2022-12-19T06:48:03.771Z,101588.16
2022-12-19T06:50:46.314Z,101624.72
2022-12-19T06:53:26.559Z,101656.28
2022-12-19T06:56:09.946Z,101679.50
2022-12-19T06:58:50.974Z,101707.50
2022-12-19T07:01:32.817Z,101728.47
2022-12-19T07:04:14.314Z,101741.56
2022-12-19T07:06:55.177Z,101766.81
2022-12-19T07:09:35.163Z,101788.38
2022-12-19T07:12:16.419Z,101802.09
2022-12-19T07:14:56.393Z,101832.59
2022-12-19T07:17:39.645Z,101849.94
2022-12-19T07:20:20.671Z,101870.78
2022-12-19T07:23:02.484Z,101889.94
2022-12-19T07:25:45.453Z,101908.28
2022-12-19T07:28:26.521Z,101927.53
2022-12-19T07:31:09.856Z,101944.91
2022-12-19T07:33:52.877Z,101957.94
2022-12-19T07:36:35.864Z,101976.28
2022-12-19T07:39:16.940Z,101987.59
2022-12-19T07:41:58.314Z,101994.56
2022-12-19T07:44:49.709Z,102015.50
2022-12-19T07:47:32.703Z,102024.09
2022-12-19T07:50:13.852Z,102030.97
2022-12-19T07:52:53.175Z,102037.06
2022-12-19T07:55:33.524Z,102043.94
2022-12-19T07:58:14.920Z,102055.19
2022-12-19T08:00:56.423Z,102063.06
2022-12-19T08:03:39.903Z,102064.75
2022-12-19T08:06:23.336Z,102065.63
2022-12-19T08:09:01.607Z,102076.06
2022-12-19T08:11:42.068Z,102064.88
2022-12-19T08:14:23.151Z,102069.09
2022-12-19T08:17:20.310Z,102051.63
2022-12-19T08:20:03.192Z,102032.38
2022-12-19T08:22:43.363Z,102034.94
2022-12-19T08:25:23.195Z,102020.84
2022-12-19T08:28:03.005Z,102023.41
2022-12-19T08:30:43.078Z,102035.72
2022-12-19T08:33:24.210Z,102017.25
2022-12-19T08:36:06.844Z,102027.72
2022-12-19T08:38:47.060Z,102021.72
2022-12-19T08:41:26.875Z,102018.03
2022-12-19T08:44:07.011Z,102007.56
2022-12-19T08:46:50.239Z,102013.59
2022-12-19T08:49:33.068Z,102010.03
2022-12-19T08:52:14.032Z,102017.06
2022-12-19T08:54:53.898Z,102022.16
2022-12-19T08:57:33.681Z,102012.53
2022-12-19T09:00:14.254Z,102002.19
2022-12-19T09:02:56.571Z,102008.22
2022-12-19T09:06:05.078Z,101996.94
2022-12-19T09:08:38.703Z,101989.03
2022-12-19T09:11:20.529Z,101996.03
2022-12-19T09:14:05.167Z,101990.78
2022-12-19T09:16:44.024Z,101991.34
2022-12-19T09:19:22.275Z,101986.09
2022-12-19T09:22:02.376Z,101988.66
2022-12-19T09:24:44.207Z,101985.13
2022-12-19T09:27:25.565Z,102001.56
2022-12-19T09:30:07.471Z,101995.31
2022-12-19T09:32:47.953Z,101985.63
2022-12-19T09:35:30.419Z,101989.09
2022-12-19T09:38:10.765Z,101990.72
2022-12-19T09:40:54.125Z,101977.53
2022-12-19T09:43:41.540Z,101985.19
2022-12-19T09:46:21.965Z,101975.47
2022-12-19T09:49:10.611Z,101983.22
2022-12-19T09:51:54.910Z,101983.84
2022-12-19T09:54:38.162Z,101993.25
2022-12-19T09:57:19.909Z,101983.19
2022-12-19T10:00:01.196Z,101987.25
2022-12-19T10:02:42.642Z,101985.28
2022-12-19T10:06:49.290Z,101975.44
2022-12-19T10:08:31.597Z,101976.22
2022-12-19T10:12:47.286Z,101973.47
2022-12-19T10:14:23.149Z,101967.94
2022-12-19T10:17:24.020Z,101957.38
2022-12-19T10:20:17.489Z,101961.34
2022-12-19T10:22:59.558Z,101949.03
2022-12-19T10:25:43.850Z,101939.78
2022-12-19T10:28:29.789Z,101928.13
2022-12-19T10:31:21.093Z,101928.56
2022-12-19T10:34:03.633Z,101914.22
2022-12-19T10:37:13.282Z,101914.63
2022-12-19T10:39:48.301Z,101911.78
2022-12-19T10:42:29.982Z,101918.72
2022-12-19T10:45:14.340Z,101911.53
2022-12-19T10:47:55.983Z,101907.72
2022-12-19T10:50:36.157Z,101899.75
2022-12-19T10:53:16.242Z,101893.41
2022-12-19T10:56:00.877Z,101901.00
2022-12-19T10:58:43.841Z,101890.41
2022-12-19T11:01:28.554Z,101894.59
2022-12-19T11:04:15.017Z,101903.00
2022-12-19T11:07:06.764Z,101900.97
2022-12-19T11:10:12.388Z,101900.84
2022-12-19T11:17:35.246Z,101905.94
2022-12-19T11:23:02.720Z,101880.19
2022-12-19T11:29:29.927Z,101882.28
2022-12-19T11:29:35.058Z,101879.94
2022-12-19T11:30:36.760Z,101872.97
2022-12-19T11:30:41.630Z,101880.34
2022-12-19T11:32:32.265Z,101871.94
2022-12-19T11:34:38.532Z,101871.75
2022-12-19T11:37:23.151Z,101871.66
2022-12-19T11:40:05.897Z,101868.25
2022-12-19T11:43:04.422Z,101869.63
2022-12-19T11:45:52.141Z,101854.53
2022-12-19T11:48:35.692Z,101850.97
2022-12-19T11:51:18.447Z,101853.44
2022-12-19T11:54:00.337Z,101843.53
2022-12-19T11:56:41.345Z,101836.41
2022-12-19T11:59:22.817Z,101849.28
2022-12-19T12:02:19.758Z,101837.91
2022-12-19T12:05:22.853Z,101830.78
2022-12-19T12:09:52.609Z,101828.91
2022-12-19T12:17:10.031Z,101822.72
2022-12-19T12:25:59.618Z,101825.97
2022-12-19T12:31:01.543Z,101823.16
2022-12-19T12:31:07.036Z,101808.91
2022-12-19T12:31:57.038Z,101814.66
2022-12-19T12:31:58.650Z,101797.19
2022-12-19T12:32:03.363Z,101798.72
2022-12-19T12:35:19.236Z,101790.75
2022-12-19T12:39:01.501Z,101777.41
2022-12-19T12:42:02.415Z,101773.66
2022-12-19T12:44:46.220Z,101764.06
2022-12-19T12:47:28.088Z,101765.59
2022-12-19T12:50:14.120Z,101763.63
2022-12-19T12:52:55.854Z,101753.69
2022-12-19T12:55:40.035Z,101743.25
2022-12-19T12:58:38.733Z,101744.69
2022-12-19T13:01:19.862Z,101736.69
2022-12-19T13:04:05.641Z,101736.50
2022-12-19T13:07:02.018Z,101731.06
2022-12-19T13:09:42.270Z,101723.09
2022-12-19T13:12:44.877Z,101713.47
2022-12-19T13:15:48.544Z,101712.38
2022-12-19T13:18:32.896Z,101698.06
2022-12-19T13:21:14.178Z,101688.38
2022-12-19T13:23:53.937Z,101685.56
2022-12-19T13:26:45.695Z,101674.09
2022-12-19T13:29:31.150Z,101656.41
2022-12-19T13:32:12.114Z,101645.69
2022-12-19T13:35:06.215Z,101641.19
2022-12-19T13:40:00.233Z,101629.72
2022-12-19T13:41:22.533Z,101624.25
2022-12-19T13:44:03.791Z,101612.59
2022-12-19T13:46:45.756Z,101606.38
2022-12-19T13:49:28.816Z,101587.00
2022-12-19T13:52:12.232Z,101585.00
2022-12-19T13:54:53.160Z,101581.53
2022-12-19T13:57:34.135Z,101577.94
2022-12-19T14:00:18.287Z,101561.97
2022-12-19T14:02:58.593Z,101576.06
2022-12-19T14:06:15.996Z,101570.03
2022-12-19T14:08:42.493Z,101572.88
2022-12-19T14:11:53.388Z,101579.09
2022-12-19T14:14:43.329Z,101581.06
2022-12-19T14:17:23.286Z,101578.53
2022-12-19T14:20:48.862Z,101582.00
2022-12-19T14:23:03.585Z,101600.34
2022-12-19T14:28:14.701Z,101602.34
2022-12-19T14:28:54.611Z,101609.09
2022-12-19T14:31:35.719Z,101620.28
2022-12-19T14:36:04.879Z,101629.97
2022-12-19T14:37:39.115Z,101649.28
2022-12-19T14:40:29.433Z,101644.28
2022-12-19T14:43:58.692Z,101645.13
2022-12-19T14:51:51.618Z,101657.56
2022-12-19T14:54:10.841Z,101653.13
2022-12-19T14:54:48.514Z,101652.28
2022-12-19T14:56:16.821Z,101645.34
2022-12-19T14:58:53.139Z,101637.63
2022-12-19T15:01:35.315Z,101636.88
2022-12-19T15:04:48.111Z,101631.66
2022-12-19T15:07:17.596Z,101625.56
2022-12-19T15:10:58.962Z,101618.69
2022-12-19T15:14:54.268Z,101610.88
2022-12-19T15:16:25.157Z,101603.94
2022-12-19T15:19:11.730Z,101600.53
2022-12-19T15:21:52.803Z,101595.28
2022-12-19T15:24:34.184Z,101591.59
2022-12-19T15:27:16.220Z,101574.00
2022-12-19T15:29:57.692Z,101548.22
2022-12-19T15:32:39.724Z,101533.38
2022-12-19T15:35:21.212Z,101500.06
2022-12-19T15:38:02.565Z,101481.72
2022-12-19T15:40:42.579Z,101447.69
2022-12-19T15:44:01.975Z,101438.22
2022-12-19T15:46:24.514Z,101417.88
2022-12-19T15:49:05.784Z,101403.03
2022-12-19T15:51:45.570Z,101380.16
2022-12-19T15:57:29.231Z,101325.19
2022-12-19T16:00:12.768Z,101295.06
2022-12-19T16:03:22.571Z,101266.41
2022-12-19T16:05:53.965Z,101226.41
2022-12-19T16:08:34.002Z,101202.81
2022-12-19T16:11:17.577Z,101193.22
2022-12-19T16:13:58.442Z,101166.34
2022-12-19T16:16:40.284Z,101148.22
2022-12-19T16:19:25.245Z,101124.41
2022-12-19T16:22:07.049Z,101104.63
2022-12-19T16:24:47.397Z,101082.94
2022-12-19T16:27:29.322Z,101081.03
2022-12-19T16:30:18.932Z,101057.84
2022-12-19T16:32:59.575Z,101035.81
2022-12-19T16:36:03.732Z,101031.28
2022-12-19T16:38:41.543Z,101022.44
2022-12-19T16:41:22.110Z,100993.34
2022-12-19T16:44:02.715Z,100988.50
2022-12-19T16:46:48.677Z,100967.50
2022-12-19T16:49:34.229Z,100948.13
2022-12-19T16:52:15.272Z,100925.56
2022-12-19T16:54:56.331Z,100916.00
2022-12-19T16:57:36.118Z,100897.25
2022-12-19T17:00:17.438Z,100879.28
2022-12-19T17:03:01.191Z,100846.84
2022-12-19T17:05:43.953Z,100841.56
2022-12-19T17:08:25.164Z,100815.84
2022-12-19T17:11:07.588Z,100793.31
2022-12-19T17:13:50.397Z,100781.03
2022-12-19T17:16:29.083Z,100753.00
2022-12-19T17:19:09.479Z,100738.38
2022-12-19T17:21:50.569Z,100737.44
2022-12-19T17:24:31.928Z,100721.13
2022-12-19T17:27:13.254Z,100713.72
2022-12-19T17:29:53.252Z,100712.16
2022-12-19T17:32:34.476Z,100721.84
2022-12-19T17:35:25.708Z,100725.91
2022-12-19T17:38:11.380Z,100742.56
2022-12-19T17:40:53.456Z,100753.09
2022-12-19T17:43:36.472Z,100753.19
2022-12-19T17:46:19.310Z,100747.69
2022-12-19T17:49:00.463Z,100755.00
2022-12-19T17:51:40.259Z,100745.28
2022-12-19T17:54:20.172Z,100748.13
2022-12-19T17:57:00.211Z,100749.09
2022-12-19T17:59:43.417Z,100749.44
2022-12-19T18:02:25.119Z,100746.22
2022-12-19T18:05:05.912Z,100758.66
2022-12-19T18:07:47.355Z,100755.41
2022-12-19T18:10:29.346Z,100766.03
2022-12-19T18:13:11.926Z,100763.41
2022-12-19T18:15:56.590Z,100767.75
2022-12-19T18:18:37.555Z,100773.00
2022-12-19T18:21:18.165Z,100764.59
2022-12-19T18:23:58.853Z,100763.53
2022-12-19T18:26:38.599Z,100764.59
2022-12-19T18:29:18.404Z,100764.81
2022-12-19T18:32:00.210Z,100772.50
2022-12-19T18:34:41.347Z,100777.88
2022-12-19T18:37:22.599Z,100783.16
2022-12-19T18:40:02.644Z,100775.59
2022-12-19T18:42:44.023Z,100778.47
2022-12-19T18:45:29.103Z,100785.09
2022-12-19T18:48:13.437Z,100789.75
2022-12-19T18:50:54.506Z,100789.16
2022-12-19T18:53:35.681Z,100796.72
2022-12-19T18:56:17.318Z,100798.28
2022-12-19T18:58:57.047Z,100812.38
2022-12-19T19:01:36.960Z,100825.31
2022-12-19T19:04:20.406Z,100832.19
2022-12-19T19:07:01.292Z,100826.81
2022-12-19T19:09:43.126Z,100825.88
2022-12-19T19:12:43.437Z,100827.38
2022-12-19T19:15:27.113Z,100810.41
2022-12-19T19:18:09.732Z,100815.47
2022-12-19T19:20:48.887Z,100814.50
2022-12-19T19:23:29.756Z,100807.31
2022-12-19T19:26:10.346Z,100795.25
2022-12-19T19:28:52.394Z,100814.75
2022-12-19T19:31:34.450Z,100813.44
2022-12-19T19:34:15.027Z,100811.63
2022-12-19T19:36:55.772Z,100800.88
2022-12-19T19:39:35.790Z,100800.16
2022-12-19T19:42:15.584Z,100805.19
2022-12-19T19:44:55.480Z,100801.47
2022-12-19T19:47:37.102Z,100791.78
2022-12-19T19:50:18.394Z,100792.00
2022-12-19T19:52:59.683Z,100776.69
2022-12-19T19:55:38.513Z,100781.00
2022-12-19T19:58:19.234Z,100776.56
2022-12-19T20:00:59.131Z,100775.75
2022-12-19T20:03:41.810Z,100771.44
2022-12-19T20:06:21.862Z,100766.06
2022-12-19T20:08:59.731Z,100765.69
2022-12-19T20:11:42.165Z,100768.22
2022-12-19T20:14:22.948Z,100773.38
2022-12-19T20:17:25.528Z,100772.44
2022-12-19T20:20:07.666Z,100766.44
2022-12-19T20:22:47.900Z,100780.09
2022-12-19T20:25:27.741Z,100763.22
2022-12-19T20:28:07.853Z,100776.03
2022-12-19T20:30:47.211Z,100757.81
2022-12-19T20:33:27.187Z,100771.13
2022-12-19T20:36:07.812Z,100773.75
2022-12-19T20:38:48.445Z,100774.31
2022-12-19T20:41:29.874Z,100780.34
2022-12-19T20:44:11.157Z,100782.47
2022-12-19T20:46:51.105Z,100787.03
2022-12-19T20:49:32.544Z,100780.06
2022-12-19T20:52:13.744Z,100787.63
2022-12-19T20:54:53.557Z,100800.34
2022-12-19T20:57:33.382Z,100792.56
2022-12-19T21:00:15.356Z,100792.78
2022-12-19T21:05:57.128Z,100799.84
2022-12-19T21:08:38.519Z,100794.56
2022-12-19T21:11:21.732Z,100803.56
2022-12-19T21:14:02.634Z,100816.72
2022-12-19T21:16:42.596Z,100816.72
2022-12-19T21:19:25.927Z,100811.22
2022-12-19T21:22:06.845Z,100817.44
2022-12-19T21:24:48.748Z,100822.22
2022-12-19T21:27:31.701Z,100813.38
2022-12-19T21:30:13.357Z,100817.69
2022-12-19T21:32:54.107Z,100818.88
2022-12-19T21:35:35.478Z,100822.59
2022-12-19T21:38:15.537Z,100829.31
2022-12-19T21:40:58.728Z,100838.03
2022-12-19T21:43:41.782Z,100834.56
2022-12-19T21:46:24.952Z,100850.38
2022-12-19T21:49:08.417Z,100844.63
2022-12-19T21:51:50.835Z,100857.19
2022-12-19T21:54:33.744Z,100867.09
2022-12-19T21:57:14.785Z,100863.88
2022-12-19T21:59:54.571Z,100869.13
2022-12-19T22:02:34.876Z,100865.78
2022-12-19T22:05:15.813Z,100852.59
2022-12-19T22:07:55.601Z,100864.94
2022-12-19T22:10:35.396Z,100872.84
2022-12-19T22:13:15.413Z,100876.69
2022-12-19T22:15:59.799Z,100886.38
2022-12-19T22:18:40.030Z,100883.75
2022-12-19T22:21:21.235Z,100882.78
2022-12-19T22:24:03.155Z,100890.69
2022-12-19T22:27:01.867Z,100900.28
2022-12-19T22:29:49.132Z,100899.13
2022-12-19T22:32:29.358Z,100902.38
2022-12-19T22:35:09.204Z,100914.47
2022-12-19T22:37:50.435Z,100915.09
2022-12-19T22:40:33.049Z,100918.13
2022-12-19T22:43:13.150Z,100912.84
2022-12-19T22:45:53.342Z,100909.63
2022-12-19T22:48:34.327Z,100918.13
2022-12-19T22:51:12.320Z,100916.47
2022-12-19T22:53:52.308Z,100916.09
2022-12-19T22:56:34.389Z,100922.97
2022-12-19T22:59:15.417Z,100937.84
2022-12-19T23:01:55.092Z,100947.91
2022-12-19T23:04:36.897Z,100950.56
2022-12-19T23:07:17.904Z,100960.03
2022-12-19T23:09:59.176Z,100958.94
2022-12-19T23:12:41.701Z,100960.88
2022-12-19T23:15:22.045Z,100957.16
2022-12-19T23:18:01.812Z,100965.81
2022-12-19T23:20:43.705Z,100963.28
2022-12-19T23:23:26.597Z,100972.06
2022-12-19T23:26:14.988Z,100966.03
2022-12-19T23:28:56.360Z,100978.25
2022-12-19T23:31:39.753Z,100991.34
2022-12-19T23:34:19.875Z,100995.59
2022-12-19T23:37:15.276Z,100986.81
2022-12-19T23:39:55.453Z,100995.47
2022-12-19T23:42:35.309Z,101004.34
2022-12-19T23:45:14.814Z,101011.06
2022-12-19T23:47:54.871Z,101000.50
2022-12-19T23:50:34.686Z,101001.91
2022-12-19T23:53:16.493Z,101003.91
2022-12-19T23:55:57.518Z,101002.34
2022-12-19T23:58:37.398Z,101014.56
